首页
METAR-TAF:

METAR-TAF

机场 :

甘露機場

坎卢普斯, 不列颠哥伦比亚, 加拿大

纬度: 50-42N, 经度: 120-27W, 海拔: 345米

当前天气观测

该预报发布于26分钟前的22:00 UTC
风速3节,风向,在东南西南之间变化
温度 26°C
湿度 20%
气压 1012 hPa
能見度: 64.4公里
少量云层高于9000英尺
多云层高于22000英尺

METAR: CYKA 262200Z 19003KT 130V230 40SM FEW090 BKN220 26/01 A2989 RMK AC1CI6 SLP122 DENSITY ALT 2700FT

时间: 15:26 (22:26 UTC)

预报

该预报发布于3小时和48分钟前的18:38 UTC
预报有效从26日的 19点(UTC)到 27日的 07点(UTC)
风速5节,风向西
能見度: 10公里
少量云层高于6000英尺
少量云层高于20000英尺
成为
从 26日的 20点(UTC)到 26日的 22点(UTC)
风速8节,风向东转东南
从 27日的 0100点(UTC)
风速8节,风向东转东南
能見度: 10公里
散云层高于9000英尺

TAF: CYKA 261838Z 2619/2707 28005KT P6SM FEW060 FEW200 BECMG 2620/2622 11008KT FM270100 11008KT P6SM SCT090 RMK NXT FCST BY 270100Z

超过4000个机场的气象观测和天气预报(METAR&TAF报告)。

可查询的气象台以黄色和红色小点在地图上表示。

将鼠标移到小点上方,可查看气象台名称。

然后点击查看天气观测和预报。

如需切换地图:点击带黑十字的绿色按钮放大地图;点击带横线的绿色按钮缩小地图;或者点击绿色箭头查看邻近地区的地图。


METAR-TAF: